Time;durP1;ratioP1;P1;durP2;ratioP2;P2;SDS_P1;SDS_P2;PMS_P1;PMS_P2;Temp;Humidity;BMP_temperature;BMP_pressure;BME280_temperature;BME280_humidity;BME280_pressure;Samples;Min_cycle;Max_cycle;Signal;HPM_P1;HPM_P2
2023/12/09 00:01:27;;;;;;;4.53;2.70;;;;;;;6.38;50.69;98914.66;4975229;28;20045;-73
2023/12/09 00:03:53;;;;;;;5.00;2.60;;;;;;;6.36;50.45;98919.09;4992867;28;20034;-74
2023/12/09 00:06:19;;;;;;;4.97;3.08;;;;;;;6.30;51.15;98914.25;4976115;28;20042;-73
2023/12/09 00:08:45;;;;;;;4.93;2.78;;;;;;;6.30;50.98;98927.22;4975689;28;20097;-73
2023/12/09 00:11:11;;;;;;;4.60;2.97;;;;;;;6.28;50.87;98914.34;4993086;28;20108;-74
2023/12/09 00:13:36;;;;;;;4.47;2.83;;;;;;;6.26;50.67;98920.53;4992898;28;20081;-73
2023/12/09 00:16:02;;;;;;;5.78;3.10;;;;;;;6.24;50.72;98914.59;4991199;28;20047;-73
2023/12/09 00:18:27;;;;;;;4.93;2.72;;;;;;;6.20;50.90;98910.50;4975560;28;20109;-74
2023/12/09 00:20:52;;;;;;;6.63;3.72;;;;;;;6.21;50.67;98910.41;4991394;28;20092;-73
2023/12/09 00:23:18;;;;;;;4.57;2.78;;;;;;;6.17;51.27;98906.34;4975406;28;20030;-74
2023/12/09 00:25:44;;;;;;;5.85;3.10;;;;;;;6.16;50.90;98900.28;4991626;28;20045;-74
2023/12/09 00:28:09;;;;;;;5.18;3.13;;;;;;;6.20;51.04;98918.28;4975302;28;20570;-73
2023/12/09 00:30:35;;;;;;;7.00;3.70;;;;;;;6.19;51.31;98920.03;4975195;28;20106;-72
2023/12/09 00:33:00;;;;;;;6.85;3.70;;;;;;;6.17;51.30;98919.28;4992659;28;20049;-72
2023/12/09 00:35:26;;;;;;;7.60;3.97;;;;;;;6.10;51.23;98910.16;4975492;28;20047;-73
2023/12/09 00:37:51;;;;;;;7.00;3.92;;;;;;;6.12;51.34;98908.31;4991461;28;20030;-73
2023/12/09 00:40:18;;;;;;;6.78;4.22;;;;;;;6.07;51.59;98897.38;4975171;28;20109;-73
2023/12/09 00:42:43;;;;;;;6.68;4.00;;;;;;;6.06;51.50;98891.38;4958981;28;20128;-73
2023/12/09 00:45:09;;;;;;;8.07;4.50;;;;;;;6.09;51.91;98901.56;4975196;28;20497;-72
2023/12/09 00:47:34;;;;;;;8.13;4.32;;;;;;;6.07;51.56;98893.06;4978057;28;20583;-72
2023/12/09 00:50:00;;;;;;;8.70;4.30;;;;;;;6.08;51.93;98897.28;4996275;28;20084;-72
2023/12/09 00:52:25;;;;;;;8.45;4.72;;;;;;;6.08;51.98;98899.06;4995502;28;20105;-73
2023/12/09 00:54:51;;;;;;;8.27;4.53;;;;;;;6.02;51.90;98887.25;4995481;28;20397;-72
2023/12/09 00:57:16;;;;;;;8.10;4.50;;;;;;;6.04;51.92;98888.03;4978775;28;20041;-72
2023/12/09 00:59:42;;;;;;;8.23;4.35;;;;;;;6.03;52.40;98898.50;4978734;28;20081;-73
2023/12/09 01:02:07;;;;;;;11.38;4.82;;;;;;;6.01;52.20;98890.78;4995131;28;20036;-72
2023/12/09 01:04:33;;;;;;;8.27;4.72;;;;;;;6.01;52.36;98895.97;4995167;28;20045;-73
2023/12/09 01:06:58;;;;;;;9.32;5.00;;;;;;;6.01;51.71;98895.13;4978371;28;20046;-73
2023/12/09 01:09:24;;;;;;;12.82;5.80;;;;;;;5.98;52.20;98896.16;4978722;28;20050;-72
2023/12/09 01:11:49;;;;;;;16.08;6.43;;;;;;;5.97;52.11;98895.28;4994711;28;20422;-73
2023/12/09 01:14:15;;;;;;;14.60;6.88;;;;;;;5.91;52.35;98892.19;4994812;28;20026;-74
2023/12/09 01:16:40;;;;;;;14.20;6.25;;;;;;;5.94;52.06;98889.41;4995905;28;20034;-75
2023/12/09 01:19:06;;;;;;;12.88;6.05;;;;;;;5.92;52.13;98892.09;4977956;28;20034;-73
2023/12/09 01:21:31;;;;;;;12.18;5.05;;;;;;;5.86;52.34;98889.84;4978213;28;20035;-73
2023/12/09 01:23:57;;;;;;;10.30;5.30;;;;;;;5.89;52.53;98896.63;4962214;28;20026;-73
2023/12/09 01:26:22;;;;;;;10.73;4.75;;;;;;;5.85;52.57;98895.94;4996015;28;20042;-74
2023/12/09 01:28:48;;;;;;;8.77;4.47;;;;;;;5.86;52.78;98902.78;4994503;28;20038;-72
2023/12/09 01:31:13;;;;;;;8.30;4.55;;;;;;;5.85;52.24;98890.78;4994376;28;20041;-74
2023/12/09 01:33:39;;;;;;;8.82;4.72;;;;;;;5.83;52.97;98902.94;4994610;28;20030;-72
2023/12/09 01:36:04;;;;;;;9.13;4.50;;;;;;;5.81;53.13;98899.63;4994629;28;20045;-72
2023/12/09 01:38:30;;;;;;;8.25;4.28;;;;;;;5.74;52.88;98896.53;4962002;28;20562;-74
2023/12/09 01:40:55;;;;;;;11.48;5.07;;;;;;;5.73;52.88;98904.38;4994308;28;20057;-73
2023/12/09 01:43:22;;;;;;;8.05;4.70;;;;;;;5.71;53.05;98899.28;4961696;28;20073;-74
2023/12/09 01:45:48;;;;;;;9.95;4.72;;;;;;;5.70;52.70;98896.78;4961617;28;20108;-74
2023/12/09 01:48:13;;;;;;;10.05;5.05;;;;;;;5.67;53.31;98905.53;4961470;28;20033;-72
2023/12/09 01:50:39;;;;;;;12.10;5.22;;;;;;;5.70;53.18;98905.38;4961728;28;20038;-72
2023/12/09 01:53:05;;;;;;;10.30;4.82;;;;;;;5.64;53.19;98904.88;4977751;28;20518;-74
2023/12/09 01:55:30;;;;;;;8.00;4.68;;;;;;;5.68;53.09;98914.16;4977907;28;20409;-74
2023/12/09 01:57:56;;;;;;;10.27;4.75;;;;;;;5.63;53.29;98909.22;4976584;28;20030;-74
2023/12/09 02:00:21;;;;;;;9.23;4.60;;;;;;;5.57;53.46;98914.72;4993684;28;20061;-73
2023/12/09 02:02:47;;;;;;;9.32;4.40;;;;;;;5.56;53.34;98924.22;4991397;28;20026;-83
2023/12/09 02:05:13;;;;;;;10.95;4.25;;;;;;;5.55;54.08;98926.91;4960590;28;20074;-79
2023/12/09 02:07:38;;;;;;;6.53;4.18;;;;;;;5.55;54.18;98932.94;4976757;28;20049;-78
2023/12/09 02:10:04;;;;;;;6.00;3.58;;;;;;;5.53;53.91;98932.16;4960580;28;20030;-80
2023/12/09 02:12:39;;;;;;;7.40;4.38;;;;;;;5.49;53.84;98930.66;4960989;28;20139;-78
2023/12/09 02:15:18;;;;;;;10.40;4.60;;;;;;;5.49;53.99;98929.81;4993913;28;20041;-79
2023/12/09 02:17:52;;;;;;;8.20;4.75;;;;;;;5.50;53.81;98927.13;4978935;28;20117;-80
2023/12/09 02:20:18;;;;;;;7.97;4.60;;;;;;;5.51;53.76;98933.16;4977614;28;20037;-80
2023/12/09 02:22:44;;;;;;;7.60;4.40;;;;;;;5.51;53.64;98939.19;4977050;28;20026;-78
2023/12/09 02:25:09;;;;;;;8.05;4.82;;;;;;;5.49;54.19;98929.81;4975652;28;20104;-78
2023/12/09 02:27:51;;;;;;;8.82;4.70;;;;;;;5.50;53.88;98921.13;4992335;28;20034;-78
2023/12/09 02:30:48;;;;;;;7.05;4.10;;;;;;;5.49;53.63;98928.06;4976769;28;20462;-78
2023/12/09 02:33:14;;;;;;;7.28;3.90;;;;;;;5.41;54.29;98909.53;4991396;28;20121;-79
2023/12/09 02:35:41;;;;;;;7.53;4.30;;;;;;;5.46;53.78;98922.22;4976662;28;20129;-77
2023/12/09 02:38:06;;;;;;;8.18;4.25;;;;;;;5.43;53.96;98921.44;4976621;28;20517;-79
2023/12/09 02:40:32;;;;;;;7.22;4.43;;;;;;;5.41;54.21;98910.34;4992620;28;20038;-78
2023/12/09 02:42:57;;;;;;;8.18;4.25;;;;;;;5.41;54.35;98914.69;4960599;28;20042;-78
2023/12/09 02:45:23;;;;;;;7.35;4.45;;;;;;;5.38;53.88;98913.09;4975789;28;20453;-79
2023/12/09 02:47:48;;;;;;;7.00;4.53;;;;;;;5.32;54.52;98907.41;4959805;28;20050;-79
2023/12/09 02:50:14;;;;;;;7.03;4.78;;;;;;;5.29;54.17;98905.81;4960047;28;20073;-79
2023/12/09 02:52:40;;;;;;;6.88;3.83;;;;;;;5.33;54.37;98906.47;4976135;28;20041;-80
2023/12/09 02:55:06;;;;;;;8.65;4.43;;;;;;;5.28;54.37;98896.34;4959911;28;20030;-77
2023/12/09 02:57:32;;;;;;;7.80;4.53;;;;;;;5.33;54.08;98911.66;4976017;28;20545;-77
2023/12/09 02:59:57;;;;;;;7.18;4.05;;;;;;;5.28;54.36;98893.75;4992400;28;20041;-81
2023/12/09 03:02:23;;;;;;;7.75;4.30;;;;;;;5.28;53.77;98901.53;4991710;28;20030;-78
2023/12/09 03:04:48;;;;;;;7.03;4.28;;;;;;;5.23;54.35;98894.03;4993338;28;20552;-79
2023/12/09 03:07:14;;;;;;;8.93;4.25;;;;;;;5.25;54.44;98899.13;4975316;28;20030;-85
2023/12/09 03:09:39;;;;;;;6.88;4.03;;;;;;;5.22;54.19;98896.69;4993256;28;20034;-78
2023/12/09 03:12:05;;;;;;;7.63;3.78;;;;;;;5.20;54.04;98907.13;4992130;28;20034;-79
2023/12/09 03:14:31;;;;;;;8.13;4.38;;;;;;;5.19;53.86;98914.97;4976101;28;20470;-80
2023/12/09 03:16:56;;;;;;;9.25;3.83;;;;;;;5.13;54.03;98897.16;4975891;28;20045;-84
2023/12/09 03:19:22;;;;;;;7.18;3.47;;;;;;;5.37;63.55;98910.59;4997892;28;20033;-80
2023/12/09 03:21:47;;;;;;;7.70;3.22;;;;;;;5.41;61.16;98912.09;4991326;28;20069;-79
2023/12/09 03:24:13;;;;;;;5.28;3.30;;;;;;;5.38;60.44;98901.91;4975482;28;20022;-77
2023/12/09 03:26:38;;;;;;;6.65;3.30;;;;;;;5.32;59.18;98897.06;4991967;28;20042;-77
2023/12/09 03:29:04;;;;;;;7.30;3.30;;;;;;;5.28;59.04;98895.53;4975447;28;20481;-78
2023/12/09 03:31:30;;;;;;;6.32;3.17;;;;;;;5.25;58.54;98896.53;4975149;28;20399;-78
2023/12/09 03:33:55;;;;;;;6.38;3.50;;;;;;;5.24;58.25;98903.44;4991071;28;20045;-79
2023/12/09 03:36:21;;;;;;;6.72;3.75;;;;;;;5.20;57.58;98914.03;4975210;28;20034;-80
2023/12/09 03:38:46;;;;;;;6.35;3.42;;;;;;;5.18;57.12;98910.69;4975007;28;20069;-81
2023/12/09 03:41:12;;;;;;;7.93;3.97;;;;;;;5.14;57.37;98910.03;4992159;28;20031;-85
2023/12/09 03:43:37;;;;;;;6.68;3.65;;;;;;;5.10;56.60;98905.91;4989745;28;20038;-79
2023/12/09 03:46:03;;;;;;;5.70;3.50;;;;;;;5.05;56.83;98902.72;4959200;28;20098;-80
2023/12/09 03:48:29;;;;;;;7.43;3.35;;;;;;;5.03;56.47;98901.97;4975681;28;20065;-80
2023/12/09 03:50:54;;;;;;;7.15;3.42;;;;;;;5.01;56.45;98912.41;4950945;28;20038;-80
2023/12/09 03:53:20;;;;;;;5.65;3.45;;;;;;;4.94;56.12;98902.44;4963991;28;20074;-80
2023/12/09 03:55:45;;;;;;;5.65;3.50;;;;;;;4.98;56.02;98911.69;4961676;28;20101;-79
2023/12/09 03:58:11;;;;;;;6.03;3.33;;;;;;;4.96;56.07;98914.38;4964260;28;20026;-80
2023/12/09 04:00:36;;;;;;;6.20;3.63;;;;;;;4.93;55.55;98908.53;4981673;28;20032;-80
2023/12/09 04:03:03;;;;;;;5.40;3.00;;;;;;;4.86;55.70;98910.59;4970195;28;20029;-79
2023/12/09 04:05:28;;;;;;;8.15;3.70;;;;;;;4.85;55.60;98908.91;5008428;28;20026;-82
2023/12/09 04:07:54;;;;;;;7.20;3.83;;;;;;;4.86;55.63;98921.75;4993591;28;20425;-80
2023/12/09 04:10:19;;;;;;;8.73;3.95;;;;;;;4.86;55.53;98919.16;4991800;28;20035;-80
2023/12/09 04:12:45;;;;;;;10.43;4.18;;;;;;;4.84;55.92;98915.84;4992056;28;20035;-79
2023/12/09 04:15:13;;;;;;;7.22;4.05;;;;;;;4.77;55.07;98914.44;5007927;28;20497;-80
2023/12/09 04:17:39;;;;;;;10.55;4.15;;;;;;;4.80;55.37;98911.72;4975601;28;20046;-79
2023/12/09 04:20:08;;;;;;;8.77;4.38;;;;;;;4.74;55.25;98906.00;4975113;28;20039;-79
2023/12/09 04:22:37;;;;;;;10.35;4.45;;;;;;;4.79;55.15;98920.41;4995017;28;20489;-79
2023/12/09 04:25:04;;;;;;;8.32;4.13;;;;;;;4.72;55.13;98909.50;5011846;28;20034;-80
2023/12/09 04:27:31;;;;;;;11.38;4.03;;;;;;;4.71;54.97;98913.03;4995688;28;20397;-78
2023/12/09 04:29:57;;;;;;;14.75;4.68;;;;;;;4.70;55.21;98916.50;5011629;28;20039;-77
2023/12/09 04:32:22;;;;;;;8.40;3.88;;;;;;;4.69;55.03;98922.59;4979381;28;20121;-78
2023/12/09 04:34:48;;;;;;;9.40;4.30;;;;;;;4.64;55.26;98909.06;4979039;28;20034;-79
2023/12/09 04:37:13;;;;;;;8.65;4.18;;;;;;;4.65;55.21;98922.81;4978939;28;20174;-80
2023/12/09 04:39:39;;;;;;;8.13;4.00;;;;;;;4.61;55.37;98909.19;4978774;28;20493;-79
2023/12/09 04:42:04;;;;;;;6.78;3.85;;;;;;;4.65;55.33;98917.63;4995157;28;20022;-79
2023/12/09 04:44:30;;;;;;;8.63;3.78;;;;;;;4.60;55.21;98907.53;4995427;28;20488;-79
2023/12/09 04:46:56;;;;;;;7.00;3.72;;;;;;;4.59;55.08;98923.97;4978897;28;20457;-82
2023/12/09 04:49:21;;;;;;;7.22;3.55;;;;;;;4.57;55.08;98909.41;4978717;28;20077;-80
2023/12/09 04:51:47;;;;;;;6.50;3.13;;;;;;;4.61;54.86;98921.31;4979041;28;20030;-81
2023/12/09 04:54:12;;;;;;;6.57;3.85;;;;;;;4.55;55.14;98909.50;4978564;28;20478;-81
2023/12/09 04:56:38;;;;;;;9.05;3.67;;;;;;;4.59;54.76;98917.97;4962963;28;20583;-80
2023/12/09 04:59:04;;;;;;;8.57;3.47;;;;;;;4.54;54.78;98918.19;4995133;28;20034;-81
2023/12/09 05:01:29;;;;;;;9.23;3.70;;;;;;;4.50;55.07;98911.47;4994958;28;20038;-82
2023/12/09 05:03:56;;;;;;;7.45;3.20;;;;;;;4.52;55.05;98923.44;4978542;28;20035;-81
2023/12/09 05:06:25;;;;;;;7.78;3.75;;;;;;;4.45;54.99;98916.88;4996612;28;20141;-89
2023/12/09 05:08:51;;;;;;;5.82;3.50;;;;;;;4.41;55.24;98915.38;4984786;28;20022;-90
2023/12/09 05:11:18;;;;;;;7.95;3.42;;;;;;;4.45;55.01;98928.97;4996956;28;20057;-88
2023/12/09 05:13:47;;;;;;;7.25;3.80;;;;;;;4.46;54.79;98928.03;5000099;28;20026;-89
2023/12/09 05:16:15;;;;;;;7.80;3.17;;;;;;;4.44;55.06;98928.09;4996007;28;20034;-88
2023/12/09 05:18:41;;;;;;;8.52;3.90;;;;;;;4.38;54.92;98912.06;4980623;28;20398;-89
2023/12/09 05:21:09;;;;;;;7.03;3.58;;;;;;;4.38;54.90;98920.69;4997405;28;20041;-88
2023/12/09 05:23:35;;;;;;;6.53;3.83;;;;;;;4.38;55.30;98925.84;4995631;28;20030;-84
2023/12/09 05:26:01;;;;;;;9.43;3.90;;;;;;;4.44;54.93;98938.44;4995184;28;20037;-85
2023/12/09 05:28:26;;;;;;;5.35;3.22;;;;;;;4.39;54.79;98930.09;4994410;28;20039;-85
2023/12/09 05:30:52;;;;;;;7.00;4.13;;;;;;;4.35;54.89;98932.00;4994947;28;20042;-85
2023/12/09 05:33:18;;;;;;;6.32;4.00;;;;;;;4.45;54.52;98941.88;4978372;28;20031;-82
2023/12/09 05:35:43;;;;;;;8.77;4.00;;;;;;;4.46;54.87;98948.72;4995148;28;20449;-83
2023/12/09 05:38:09;;;;;;;7.28;4.38;;;;;;;4.41;54.87;98937.75;4977956;28;20053;-83
2023/12/09 05:40:34;;;;;;;9.88;4.72;;;;;;;4.41;54.72;98942.94;4995816;28;20092;-83
2023/12/09 05:43:01;;;;;;;10.45;5.00;;;;;;;4.36;54.82;98943.16;4982022;28;20034;-85
2023/12/09 05:45:27;;;;;;;13.52;5.22;;;;;;;4.43;54.94;98959.19;4978706;28;20034;-84
2023/12/09 05:47:53;;;;;;;8.90;4.60;;;;;;;4.50;54.59;98974.34;4994446;28;20090;-83
2023/12/09 05:50:19;;;;;;;10.25;4.05;;;;;;;4.48;54.69;98975.34;4978459;28;20509;-83
2023/12/09 05:52:44;;;;;;;11.40;4.65;;;;;;;4.53;54.77;98978.56;4978274;28;20027;-83
2023/12/09 05:55:14;;;;;;;10.70;5.07;;;;;;;4.57;54.86;98977.50;4994629;28;20034;-84
2023/12/09 05:57:41;;;;;;;8.05;4.45;;;;;;;4.59;54.70;98980.00;4979229;28;20506;-85
2023/12/09 06:00:10;;;;;;;8.50;4.85;;;;;;;4.58;54.88;98978.34;4994330;28;20117;-85
2023/12/09 06:02:35;;;;;;;7.45;4.78;;;;;;;4.59;54.67;98977.44;4993932;28;20570;-85
2023/12/09 06:05:03;;;;;;;7.35;4.38;;;;;;;4.67;54.37;98990.81;5010521;28;20034;-84
2023/12/09 06:07:28;;;;;;;7.72;4.45;;;;;;;4.73;54.71;99000.88;4978511;28;20089;-84
2023/12/09 06:09:55;;;;;;;7.05;4.47;;;;;;;4.79;54.24;99005.75;4994427;28;20022;-85
2023/12/09 06:12:22;;;;;;;7.63;4.88;;;;;;;5.38;53.13;98998.53;4998506;28;20065;-85
2023/12/09 06:14:48;;;;;;;9.93;4.55;;;;;;;6.62;50.59;99005.81;4994473;28;20393;-84
2023/12/09 06:17:15;;;;;;;9.93;4.60;;;;;;;7.74;48.04;99003.69;4978241;28;20056;-89
2023/12/09 06:19:41;;;;;;;8.27;4.47;;;;;;;8.59;46.80;99005.47;4962959;28;20038;-87
2023/12/09 06:22:07;;;;;;;7.97;4.65;;;;;;;9.65;44.46;99000.25;4977996;28;20035;-86
2023/12/09 06:24:34;;;;;;;8.32;4.72;;;;;;;10.49;42.80;99017.03;4993811;28;20046;-85
2023/12/09 06:27:04;;;;;;;8.00;4.82;;;;;;;11.31;41.21;99003.25;4994680;28;20053;-86
2023/12/09 06:29:34;;;;;;;8.13;4.50;;;;;;;12.16;39.77;99000.25;4993749;28;20564;-86
2023/12/09 06:32:01;;;;;;;10.52;4.45;;;;;;;13.34;37.74;99016.06;4994844;28;20117;-87
2023/12/09 06:34:27;;;;;;;7.75;4.65;;;;;;;14.15;36.00;99025.84;4977967;28;20077;-87
2023/12/09 06:36:53;;;;;;;8.50;4.18;;;;;;;14.59;35.19;99022.94;4995693;28;20145;-87
2023/12/09 06:39:21;;;;;;;9.93;4.72;;;;;;;14.28;35.29;99023.84;4977477;28;20034;-86
2023/12/09 06:41:47;;;;;;;7.90;5.30;;;;;;;13.90;35.32;99008.78;4999328;28;20123;-90
2023/12/09 06:44:12;;;;;;;10.50;5.38;;;;;;;13.98;35.48;99026.47;4998771;28;20474;-82
2023/12/09 06:46:38;;;;;;;10.07;5.85;;;;;;;14.10;35.14;99025.44;4977396;28;20058;-82
2023/12/09 06:49:05;;;;;;;10.73;5.43;;;;;;;13.85;35.37;99019.69;4976606;28;20045;-80
2023/12/09 06:51:30;;;;;;;11.15;7.03;;;;;;;13.40;36.03;99022.59;4960988;28;20038;-81
2023/12/09 06:53:56;;;;;;;13.73;7.60;;;;;;;12.90;36.66;99019.69;4993289;28;20034;-81
2023/12/09 06:56:22;;;;;;;11.82;7.47;;;;;;;12.49;37.43;99019.44;4978687;28;20529;-81
2023/12/09 06:58:48;;;;;;;13.30;7.53;;;;;;;12.19;38.04;99025.31;4961169;28;20034;-82
2023/12/09 07:01:21;;;;;;;14.90;8.30;;;;;;;11.81;38.45;99024.69;4963385;28;20417;-80
2023/12/09 07:03:48;;;;;;;13.73;8.30;;;;;;;11.53;39.29;99028.59;4964633;28;20518;-84
2023/12/09 07:06:14;;;;;;;17.73;8.15;;;;;;;11.18;39.65;99039.88;4964805;28;20205;-83
2023/12/09 07:08:40;;;;;;;20.23;8.55;;;;;;;10.92;40.12;99039.22;4982545;28;20448;-83
2023/12/09 07:11:06;;;;;;;13.38;8.57;;;;;;;10.77;40.46;99042.00;4992757;28;20034;-82
2023/12/09 07:13:32;;;;;;;12.25;7.95;;;;;;;10.76;40.33;99052.53;4992590;28;20102;-81
2023/12/09 07:15:58;;;;;;;18.17;8.32;;;;;;;10.65;40.72;99051.53;4976839;28;20516;-82
2023/12/09 07:18:23;;;;;;;12.13;8.38;;;;;;;10.89;40.81;99049.88;4960083;28;20046;-81
2023/12/09 07:20:50;;;;;;;17.60;9.18;;;;;;;11.22;40.71;99041.34;4993238;28;20144;-80
2023/12/09 07:23:16;;;;;;;14.77;8.30;;;;;;;11.30;40.52;99048.63;4960650;28;20049;-80
2023/12/09 07:25:41;;;;;;;16.75;8.13;;;;;;;11.30;40.19;99041.59;4976257;28;20497;-87
2023/12/09 07:28:07;;;;;;;14.48;8.52;;;;;;;11.52;40.02;99045.22;4959865;28;20038;-80
2023/12/09 07:30:32;;;;;;;12.20;8.07;;;;;;;11.75;39.14;99039.09;4993454;28;20135;-81
2023/12/09 07:32:58;;;;;;;16.70;7.88;;;;;;;11.99;39.20;99034.75;4976024;28;20112;-81
2023/12/09 07:35:25;;;;;;;11.13;7.47;;;;;;;12.33;42.28;99043.41;4976786;28;20112;-81
2023/12/09 07:37:50;;;;;;;10.38;6.32;;;;;;;12.51;41.75;99041.13;4998383;28;20051;-83
2023/12/09 07:40:16;;;;;;;10.55;6.80;;;;;;;12.72;40.08;99038.56;4977025;28;20376;-78
2023/12/09 07:42:41;;;;;;;12.48;6.60;;;;;;;12.80;39.81;99030.09;4993053;28;20030;-79
2023/12/09 07:45:08;;;;;;;10.93;7.13;;;;;;;13.01;39.42;99030.13;4976085;28;20442;-79
2023/12/09 07:47:33;;;;;;;14.00;6.43;;;;;;;13.39;39.02;99032.25;4967313;28;20101;-78
2023/12/09 07:49:59;;;;;;;16.55;7.38;;;;;;;13.75;38.50;99024.84;4986374;28;20461;-84
2023/12/09 07:52:24;;;;;;;12.05;8.18;;;;;;;14.08;37.83;99024.75;4958162;28;20026;-80
2023/12/09 07:54:50;;;;;;;15.25;7.80;;;;;;;14.64;37.22;99031.28;4988109;28;20034;-81
2023/12/09 07:57:15;;;;;;;11.70;4.50;;;;;;;15.52;48.51;99028.63;4984394;28;20053;-79
2023/12/09 07:59:41;;;;;;;11.10;4.75;;;;;;;16.35;46.17;99023.53;4959009;28;20049;-79
2023/12/09 08:02:06;;;;;;;13.35;7.85;;;;;;;16.75;40.70;99021.47;4990618;28;20026;-77
2023/12/09 08:04:32;;;;;;;17.95;8.48;;;;;;;17.07;38.07;99015.69;4991481;28;20050;-77
2023/12/09 08:06:57;;;;;;;18.83;9.75;;;;;;;17.44;35.77;99022.59;4989826;28;20514;-79
2023/12/09 08:09:23;;;;;;;22.23;10.52;;;;;;;17.70;33.98;99013.84;4991247;28;20042;-77
2023/12/09 08:11:48;;;;;;;18.42;10.00;;;;;;;17.98;32.77;99021.59;4990233;28;20037;-78
2023/12/09 08:14:14;;;;;;;18.92;10.07;;;;;;;18.25;31.90;99023.22;4994441;28;20072;-78
2023/12/09 08:16:40;;;;;;;16.67;10.15;;;;;;;18.48;30.65;99015.53;5011035;28;20448;-78
2023/12/09 08:19:05;;;;;;;19.92;11.27;;;;;;;18.76;29.81;99012.63;4992899;28;20497;-75
2023/12/09 08:21:37;;;;;;;16.08;10.70;;;;;;;18.97;28.66;99014.81;4992427;28;20038;-77
2023/12/09 08:24:03;;;;;;;16.92;10.23;;;;;;;19.19;28.12;99013.31;5010816;28;20077;-77
2023/12/09 08:26:28;;;;;;;18.88;10.48;;;;;;;19.33;27.53;99010.00;5009664;28;20032;-79
2023/12/09 08:28:55;;;;;;;18.52;11.35;;;;;;;19.57;26.87;99003.03;5009189;28;20053;-79
2023/12/09 08:31:20;;;;;;;17.75;11.05;;;;;;;19.71;26.47;99007.63;5009426;28;20100;-76
2023/12/09 08:33:46;;;;;;;19.73;11.27;;;;;;;19.88;26.05;98997.03;5010076;28;20466;-78
2023/12/09 08:36:11;;;;;;;22.23;11.45;;;;;;;20.05;26.07;99000.44;4992683;28;20123;-78
2023/12/09 08:38:37;;;;;;;17.33;10.88;;;;;;;20.28;25.56;99002.34;5009343;28;20046;-78
2023/12/09 08:41:05;;;;;;;22.10;11.63;;;;;;;20.47;25.10;98993.94;5026135;28;20113;-81
2023/12/09 08:43:30;;;;;;;17.65;10.70;;;;;;;20.65;24.66;98988.38;4998437;28;20077;-77
2023/12/09 08:45:56;;;;;;;21.17;10.40;;;;;;;20.95;24.33;98996.47;4977683;28;20034;-76
2023/12/09 08:48:22;;;;;;;25.52;10.40;;;;;;;21.31;23.86;98991.34;5009368;28;20026;-79
2023/12/09 08:50:48;;;;;;;16.92;9.50;;;;;;;21.87;23.18;98992.84;4992767;28;20046;-78
2023/12/09 08:53:13;;;;;;;16.35;8.93;;;;;;;22.22;22.65;98983.25;5010330;28;20037;-77
2023/12/09 08:55:39;;;;;;;13.40;8.38;;;;;;;22.66;22.04;98978.00;5009040;28;20471;-76
2023/12/09 08:58:04;;;;;;;11.60;8.23;;;;;;;22.94;21.79;98973.59;5009048;28;20045;-77
2023/12/09 09:00:30;;;;;;;14.65;8.60;;;;;;;23.10;21.56;98958.38;5009571;28;20053;-77
2023/12/09 09:02:55;;;;;;;13.73;8.90;;;;;;;23.16;21.68;98946.97;5009846;28;20053;-83
2023/12/09 09:05:22;;;;;;;13.95;6.97;;;;;;;23.14;26.48;98954.31;4992890;28;20096;-73
2023/12/09 09:07:48;;;;;;;10.57;6.15;;;;;;;23.04;28.80;98943.13;5011846;28;20025;-85
2023/12/09 09:10:14;;;;;;;17.63;6.20;;;;;;;23.02;29.59;98947.84;4977664;28;20053;-76
2023/12/09 09:12:39;;;;;;;11.57;6.88;;;;;;;22.98;28.30;98941.25;4977017;28;20493;-76
2023/12/09 09:15:06;;;;;;;8.98;5.95;;;;;;;22.93;29.41;98937.34;4993601;28;20050;-70
2023/12/09 09:17:32;;;;;;;14.38;6.22;;;;;;;22.95;30.17;98934.47;4976944;28;20030;-71
2023/12/09 09:19:58;;;;;;;12.30;5.63;;;;;;;22.98;29.10;98938.56;4975898;28;20046;-72
2023/12/09 09:22:23;;;;;;;8.70;5.32;;;;;;;23.07;27.94;98930.28;4959826;28;20043;-74
2023/12/09 09:24:49;;;;;;;8.73;5.32;;;;;;;23.24;27.68;98930.81;4992552;28;20570;-74
2023/12/09 09:27:14;;;;;;;11.50;5.35;;;;;;;23.48;27.01;98926.91;4993654;28;20047;-76
2023/12/09 09:29:40;;;;;;;9.23;5.40;;;;;;;24.12;26.28;98919.63;4999977;28;20485;-74
2023/12/09 09:32:07;;;;;;;9.52;4.97;;;;;;;24.75;24.93;98913.22;5011813;28;20049;-75
2023/12/09 09:34:33;;;;;;;10.10;5.53;;;;;;;25.55;23.89;98910.44;5028739;28;20105;-76
2023/12/09 09:36:58;;;;;;;9.63;6.15;;;;;;;26.35;22.13;98907.44;4993926;28;20038;-77
2023/12/09 09:39:24;;;;;;;13.20;5.80;;;;;;;27.32;20.91;98908.97;5006379;28;20093;-76
2023/12/09 09:42:11;;;;;;;10.25;5.93;;;;;;;28.21;19.64;98913.94;4965804;28;20039;-77
2023/12/09 09:44:44;;;;;;;12.80;6.27;;;;;;;28.77;18.59;98911.88;4988997;28;20041;-79
2023/12/09 09:47:09;;;;;;;10.48;5.75;;;;;;;29.21;18.30;98900.84;4992366;28;20108;-79
2023/12/09 09:49:35;;;;;;;7.15;5.57;;;;;;;29.73;17.55;98898.19;4975978;28;20042;-82
2023/12/09 09:52:00;;;;;;;8.20;5.68;;;;;;;29.88;16.96;98905.75;4962881;28;20122;-79
2023/12/09 09:54:30;;;;;;;7.88;5.50;;;;;;;30.10;16.55;98902.41;4960182;28;20042;-81
2023/12/09 09:56:58;;;;;;;6.25;5.05;;;;;;;30.39;16.34;98899.72;4971552;28;20103;-72
2023/12/09 09:59:24;;;;;;;5.75;4.60;;;;;;;30.54;17.40;98905.38;4978705;28;20065;-83
2023/12/09 10:01:49;;;;;;;7.50;4.53;;;;;;;30.70;17.98;98889.47;4984047;28;20081;-73
2023/12/09 10:04:15;;;;;;;7.65;4.93;;;;;;;30.91;18.06;98906.75;4987229;28;20026;-79
2023/12/09 10:06:41;;;;;;;8.32;5.53;;;;;;;30.52;17.80;98904.81;4985701;28;20046;-77
2023/12/09 10:09:07;;;;;;;7.20;5.32;;;;;;;30.56;17.37;98897.84;4997427;28;20108;-80
2023/12/09 10:11:32;;;;;;;9.70;5.20;;;;;;;30.11;18.38;98894.09;4976735;28;20406;-81
2023/12/09 10:13:58;;;;;;;7.13;4.80;;;;;;;29.68;18.29;98895.41;4976100;28;20022;-77
2023/12/09 10:16:23;;;;;;;8.50;5.40;;;;;;;29.01;18.79;98891.22;4975844;28;20042;-89
2023/12/09 10:18:49;;;;;;;7.75;4.63;;;;;;;28.36;19.05;98883.19;4974986;28;20054;-82
2023/12/09 10:21:15;;;;;;;8.27;5.22;;;;;;;27.55;19.76;98884.19;4978480;28;20163;-79
2023/12/09 10:23:41;;;;;;;12.00;5.65;;;;;;;26.90;20.35;98881.97;4992112;28;20097;-79
2023/12/09 10:26:07;;;;;;;6.85;5.13;;;;;;;26.38;20.98;98887.47;4975112;28;20690;-80
2023/12/09 10:28:33;;;;;;;8.05;5.85;;;;;;;25.78;21.49;98888.59;4975793;28;20425;-76
2023/12/09 10:31:00;;;;;;;13.60;5.40;;;;;;;25.35;21.56;98883.81;5012070;28;20049;-83
2023/12/09 10:33:32;;;;;;;9.65;5.68;;;;;;;24.94;21.86;98890.19;5011489;28;20046;-82
2023/12/09 10:36:00;;;;;;;8.63;5.13;;;;;;;24.49;22.17;98885.41;4995076;28;20038;-77
2023/12/09 10:38:26;;;;;;;10.67;5.37;;;;;;;23.99;23.09;98877.75;5011378;28;20029;-79
2023/12/09 10:40:53;;;;;;;8.35;5.47;;;;;;;23.44;23.69;98884.88;5010881;28;20032;-74
2023/12/09 10:43:19;;;;;;;9.88;5.40;;;;;;;23.20;23.66;98879.00;5011316;28;20026;-77
2023/12/09 10:45:45;;;;;;;7.18;5.03;;;;;;;22.95;23.86;98875.94;5010529;28;20080;-80
2023/12/09 10:48:10;;;;;;;6.43;4.57;;;;;;;22.69;23.91;98877.38;4978255;28;20058;-81
2023/12/09 10:50:37;;;;;;;10.15;5.00;;;;;;;22.37;25.33;98884.84;4993654;28;20048;-76
2023/12/09 10:53:02;;;;;;;8.63;4.80;;;;;;;22.12;25.17;98884.34;5010374;28;20481;-79
2023/12/09 10:55:28;;;;;;;7.35;4.57;;;;;;;21.86;25.43;98877.72;4994107;28;20101;-73
2023/12/09 10:57:54;;;;;;;8.02;4.63;;;;;;;21.63;25.37;98867.25;4994537;28;20065;-72
2023/12/09 11:00:19;;;;;;;6.32;4.40;;;;;;;21.41;25.85;98863.66;4994235;28;20036;-75
2023/12/09 11:02:46;;;;;;;8.40;4.35;;;;;;;21.28;26.08;98869.59;4965853;28;20382;-77
2023/12/09 11:05:13;;;;;;;6.95;4.00;;;;;;;21.06;26.22;98870.50;4955829;28;20113;-77
2023/12/09 11:07:39;;;;;;;7.45;3.83;;;;;;;20.87;26.49;98861.22;4939858;28;20544;-77
2023/12/09 11:10:07;;;;;;;7.75;4.00;;;;;;;20.66;26.79;98857.44;4974063;28;20061;-78
2023/12/09 11:12:33;;;;;;;6.18;3.90;;;;;;;20.36;27.18;98838.75;5026867;28;20112;-76
2023/12/09 11:15:14;;;;;;;7.53;3.60;;;;;;;20.27;27.15;98854.91;4993547;28;20566;-80
2023/12/09 11:17:40;;;;;;;6.80;3.20;;;;;;;20.09;27.43;98848.06;5010462;28;20468;-78
2023/12/09 11:20:16;;;;;;;5.63;3.90;;;;;;;19.89;27.93;98852.97;4994117;28;20059;-79
2023/12/09 11:22:43;;;;;;;6.57;4.00;;;;;;;19.79;27.98;98852.38;4994157;28;20379;-79
2023/12/09 11:25:12;;;;;;;7.78;4.00;;;;;;;19.61;28.18;98847.28;5010693;28;20033;-82
2023/12/09 11:27:37;;;;;;;5.88;4.00;;;;;;;19.47;28.05;98844.38;4993396;28;20034;-80
2023/12/09 11:30:04;;;;;;;5.25;4.07;;;;;;;19.26;28.66;98855.53;4993430;28;20038;-78